Time;durP1;ratioP1;P1;durP2;ratioP2;P2;SDS_P1;SDS_P2;PMS_P1;PMS_P2;Temp;Humidity;BMP_temperature;BMP_pressure;BME280_temperature;BME280_humidity;BME280_pressure;Samples;Min_cycle;Max_cycle;Signal;HPM_P1;HPM_P2
2021/04/18 00:00:20;;;;;;;3.43;2.83;;;;;;;;;;5121244;28;20712;-75
2021/04/18 00:02:47;;;;;;;6.57;3.67;;;;;;;;;;5120470;28;20731;-75
2021/04/18 00:05:15;;;;;;;3.70;3.23;;;;;;;;;;5120982;28;20236;-74
2021/04/18 00:07:42;;;;;;;3.87;3.23;;;;;;;;;;5120640;28;20230;-74
2021/04/18 00:10:10;;;;;;;4.20;3.00;;;;;;;;;;5121280;28;20293;-74
2021/04/18 00:12:37;;;;;;;5.77;3.33;;;;;;;;;;5120605;28;20233;-74
2021/04/18 00:15:05;;;;;;;7.00;3.70;;;;;;;;;;5120855;27;20259;-74
2021/04/18 00:17:33;;;;;;;3.93;3.33;;;;;;;;;;5120370;28;20212;-74
2021/04/18 00:20:01;;;;;;;8.53;3.37;;;;;;;;;;5120783;28;20266;-75
2021/04/18 00:22:27;;;;;;;5.40;3.10;;;;;;;;;;5120295;28;20296;-74
2021/04/18 00:24:54;;;;;;;3.80;2.83;;;;;;;;;;5120274;28;20772;-74
2021/04/18 00:27:22;;;;;;;4.40;2.73;;;;;;;;;;5120156;28;20248;-74
2021/04/18 00:29:48;;;;;;;4.83;3.30;;;;;;;;;;5120299;28;20296;-75
2021/04/18 00:32:15;;;;;;;3.67;3.00;;;;;;;;;;5119509;28;20403;-74
2021/04/18 00:34:43;;;;;;;4.47;3.23;;;;;;;;;;5120379;28;20217;-74
2021/04/18 00:37:10;;;;;;;6.40;3.30;;;;;;;;;;5106473;28;20208;-75
2021/04/18 00:39:37;;;;;;;4.13;3.40;;;;;;;;;;5120266;28;20268;-75
2021/04/18 00:42:05;;;;;;;4.60;3.20;;;;;;;;;;5120167;28;20197;-74
2021/04/18 00:44:32;;;;;;;3.33;3.00;;;;;;;;;;5120052;28;20271;-75
2021/04/18 00:46:59;;;;;;;3.57;2.80;;;;;;;;;;5119765;28;20736;-75
2021/04/18 00:49:26;;;;;;;5.30;2.90;;;;;;;;;;5120081;28;20234;-75
2021/04/18 00:51:54;;;;;;;4.33;2.90;;;;;;;;;;5120015;28;20316;-75
2021/04/18 00:54:21;;;;;;;3.70;3.03;;;;;;;;;;5119616;28;20358;-75
2021/04/18 00:56:48;;;;;;;3.67;2.47;;;;;;;;;;5119871;28;20270;-75
2021/04/18 00:59:15;;;;;;;4.30;3.40;;;;;;;;;;5119952;28;20288;-75
2021/04/18 01:01:42;;;;;;;4.07;3.57;;;;;;;;;;5119860;28;20284;-74
2021/04/18 01:04:09;;;;;;;8.20;3.30;;;;;;;;;;5119685;28;20212;-75
2021/04/18 01:06:36;;;;;;;3.77;3.27;;;;;;;;;;5119870;28;20272;-74
2021/04/18 01:09:04;;;;;;;7.77;3.40;;;;;;;;;;5119779;28;20265;-75
2021/04/18 01:11:31;;;;;;;5.17;3.37;;;;;;;;;;5119528;28;20209;-74
2021/04/18 01:13:58;;;;;;;4.83;3.27;;;;;;;;;;5119392;28;20641;-75
2021/04/18 01:16:25;;;;;;;4.03;3.13;;;;;;;;;;5119405;28;20236;-74
2021/04/18 01:18:52;;;;;;;3.60;3.10;;;;;;;;;;5118973;28;20335;-75
2021/04/18 01:21:21;;;;;;;5.27;3.53;;;;;;;;;;5119680;28;20208;-75
2021/04/18 01:23:48;;;;;;;5.03;3.47;;;;;;;;;;5119664;28;20201;-75
2021/04/18 01:26:15;;;;;;;4.87;3.43;;;;;;;;;;5118909;28;20614;-74
2021/04/18 01:28:42;;;;;;;7.33;3.20;;;;;;;;;;5119518;28;20207;-75
2021/04/18 01:31:09;;;;;;;7.13;3.40;;;;;;;;;;5119494;28;20201;-75
2021/04/18 01:33:37;;;;;;;4.97;3.73;;;;;;;;;;5118627;28;20312;-75
2021/04/18 01:36:06;;;;;;;4.03;3.60;;;;;;;;;;5118902;28;20220;-75
2021/04/18 01:38:34;;;;;;;5.73;3.43;;;;;;;;;;5119081;28;20283;-75
2021/04/18 01:41:02;;;;;;;4.90;3.20;;;;;;;;;;5118954;28;20209;-74
2021/04/18 01:43:29;;;;;;;5.10;3.50;;;;;;;;;;5118349;28;20212;-75
2021/04/18 01:45:56;;;;;;;5.97;3.40;;;;;;;;;;5118904;28;20278;-75
2021/04/18 01:48:23;;;;;;;4.77;2.83;;;;;;;;;;5118370;28;20215;-74
2021/04/18 01:50:51;;;;;;;4.23;3.20;;;;;;;;;;5119020;28;20296;-75
2021/04/18 01:53:18;;;;;;;4.07;2.93;;;;;;;;;;5118794;28;20222;-75
2021/04/18 01:55:46;;;;;;;6.33;3.43;;;;;;;;;;5118665;28;20759;-75
2021/04/18 01:58:13;;;;;;;7.53;3.47;;;;;;;;;;5118714;28;20239;-75
2021/04/18 02:00:40;;;;;;;6.50;3.27;;;;;;;;;;5118590;28;20652;-75
2021/04/18 02:03:08;;;;;;;9.37;3.87;;;;;;;;;;5118382;28;20212;-75
2021/04/18 02:05:35;;;;;;;4.83;3.30;;;;;;;;;;5118729;28;20225;-75
2021/04/18 02:08:02;;;;;;;3.73;3.23;;;;;;;;;;5118432;28;20687;-75
2021/04/18 02:10:29;;;;;;;5.53;3.03;;;;;;;;;;5118759;28;20291;-75
2021/04/18 02:12:57;;;;;;;4.33;3.67;;;;;;;;;;5118422;28;20224;-75
2021/04/18 02:15:24;;;;;;;4.80;3.37;;;;;;;;;;5118627;28;20319;-75
2021/04/18 02:17:54;;;;;;;3.73;3.23;;;;;;;;;;5118039;28;20208;-75
2021/04/18 02:20:22;;;;;;;3.83;2.83;;;;;;;;;;5118528;28;20204;-74
2021/04/18 02:22:49;;;;;;;5.63;3.33;;;;;;;;;;5118625;28;20283;-74
2021/04/18 02:25:16;;;;;;;5.13;3.70;;;;;;;;;;5118172;28;20331;-75
2021/04/18 02:27:43;;;;;;;5.07;3.37;;;;;;;;;;5118342;28;20209;-75
2021/04/18 02:30:12;;;;;;;6.07;3.27;;;;;;;;;;5118635;28;20247;-75
2021/04/18 02:32:39;;;;;;;4.50;3.40;;;;;;;;;;5118002;28;20311;-75
2021/04/18 02:35:06;;;;;;;4.20;2.93;;;;;;;;;;5117973;28;20257;-74
2021/04/18 02:37:33;;;;;;;5.67;3.53;;;;;;;;;;5118135;28;20565;-75
2021/04/18 02:40:00;;;;;;;5.40;4.13;;;;;;;;;;5118382;28;20288;-75
2021/04/18 02:42:27;;;;;;;7.77;3.50;;;;;;;;;;5118401;28;20358;-75
2021/04/18 02:44:54;;;;;;;5.97;3.40;;;;;;;;;;5117994;28;20252;-75
2021/04/18 02:47:22;;;;;;;4.57;3.23;;;;;;;;;;5117938;28;20239;-74
2021/04/18 02:49:49;;;;;;;5.03;3.47;;;;;;;;;;5118015;28;20247;-75
2021/04/18 02:52:16;;;;;;;4.33;3.00;;;;;;;;;;5118184;28;20346;-75
2021/04/18 02:54:43;;;;;;;4.03;3.30;;;;;;;;;;5120234;28;20280;-75
2021/04/18 02:57:10;;;;;;;4.47;3.40;;;;;;;;;;5121963;28;20232;-74
2021/04/18 02:59:37;;;;;;;4.57;3.27;;;;;;;;;;5122190;27;20303;-74
2021/04/18 03:02:05;;;;;;;5.60;3.73;;;;;;;;;;5122169;28;20208;-74
2021/04/18 03:04:33;;;;;;;6.23;3.70;;;;;;;;;;5121876;28;20224;-75
2021/04/18 03:07:00;;;;;;;4.17;3.47;;;;;;;;;;5121983;28;20286;-74
2021/04/18 03:09:27;;;;;;;4.30;3.20;;;;;;;;;;5121751;28;20275;-75
2021/04/18 03:11:54;;;;;;;10.93;3.50;;;;;;;;;;5121675;28;20286;-75
2021/04/18 03:14:21;;;;;;;5.10;3.40;;;;;;;;;;5121881;28;20224;-74
2021/04/18 03:16:48;;;;;;;6.60;3.10;;;;;;;;;;5121805;28;20287;-75
2021/04/18 03:19:15;;;;;;;5.80;3.27;;;;;;;;;;5121651;28;20231;-75
2021/04/18 03:21:43;;;;;;;3.80;3.17;;;;;;;;;;5121755;28;20209;-75
2021/04/18 03:24:10;;;;;;;3.70;3.30;;;;;;;;;;5121850;27;20284;-75
2021/04/18 03:26:37;;;;;;;4.77;3.93;;;;;;;;;;5121422;28;20272;-75
2021/04/18 03:29:05;;;;;;;3.83;3.10;;;;;;;;;;5121687;28;20205;-75
2021/04/18 03:31:32;;;;;;;4.23;3.40;;;;;;;;;;5121759;28;20292;-75
2021/04/18 03:33:59;;;;;;;5.33;3.70;;;;;;;;;;5121019;28;20342;-75
2021/04/18 03:36:26;;;;;;;6.53;3.50;;;;;;;;;;5121230;28;20205;-75
2021/04/18 03:38:54;;;;;;;4.37;3.80;;;;;;;;;;5121346;28;20584;-75
2021/04/18 03:41:21;;;;;;;4.17;3.40;;;;;;;;;;5121096;28;20738;-75
2021/04/18 03:43:48;;;;;;;6.23;3.43;;;;;;;;;;5121244;28;20578;-75
2021/04/18 03:46:15;;;;;;;4.80;3.43;;;;;;;;;;5120971;28;20787;-75
2021/04/18 03:48:42;;;;;;;4.83;3.43;;;;;;;;;;5121070;28;20209;-74
2021/04/18 03:51:09;;;;;;;6.37;3.23;;;;;;;;;;5121356;28;20288;-75
2021/04/18 03:53:36;;;;;;;5.67;3.47;;;;;;;;;;5121177;28;20271;-75
2021/04/18 03:56:06;;;;;;;4.83;3.40;;;;;;;;;;5120759;28;20223;-75
2021/04/18 03:58:35;;;;;;;4.63;3.23;;;;;;;;;;5120772;28;20287;-74
2021/04/18 04:01:02;;;;;;;5.50;3.30;;;;;;;;;;5120781;28;20247;-74
2021/04/18 04:03:29;;;;;;;7.90;3.27;;;;;;;;;;5120580;28;20258;-75
2021/04/18 04:05:56;;;;;;;4.73;3.50;;;;;;;;;;5119936;28;20232;-75
2021/04/18 04:08:23;;;;;;;4.63;3.47;;;;;;;;;;5121078;28;20293;-75
2021/04/18 04:10:50;;;;;;;4.77;3.20;;;;;;;;;;5120834;28;20236;-74
2021/04/18 04:13:18;;;;;;;5.23;3.80;;;;;;;;;;5120798;28;20283;-75
2021/04/18 04:15:45;;;;;;;3.80;3.30;;;;;;;;;;5120465;28;20263;-75
2021/04/18 04:18:12;;;;;;;4.03;3.17;;;;;;;;;;5120283;28;20291;-75
2021/04/18 04:20:40;;;;;;;6.27;3.57;;;;;;;;;;5120441;28;20207;-74
2021/04/18 04:23:07;;;;;;;4.73;3.50;;;;;;;;;;5120797;28;20239;-74
2021/04/18 04:25:34;;;;;;;6.10;3.43;;;;;;;;;;5120096;28;20704;-73
2021/04/18 04:28:02;;;;;;;4.90;3.90;;;;;;;;;;5120537;28;20200;-75
2021/04/18 04:30:30;;;;;;;6.60;3.40;;;;;;;;;;5120525;28;20288;-74
2021/04/18 04:32:57;;;;;;;6.60;3.97;;;;;;;;;;5119834;28;20225;-74
2021/04/18 04:35:24;;;;;;;9.50;3.90;;;;;;;;;;5120236;28;20221;-74
2021/04/18 04:37:51;;;;;;;7.47;4.00;;;;;;;;;;5119868;28;20686;-74
2021/04/18 04:40:18;;;;;;;4.87;3.27;;;;;;;;;;5120871;27;20611;-74
2021/04/18 04:42:45;;;;;;;5.43;3.83;;;;;;;;;;5119800;28;20288;-73
2021/04/18 04:45:12;;;;;;;3.87;3.30;;;;;;;;;;5121771;27;20213;-73
2021/04/18 04:47:40;;;;;;;4.97;3.53;;;;;;;;;;5119605;27;20242;-73
2021/04/18 04:50:08;;;;;;;4.73;3.27;;;;;;;;;;5120931;27;20201;-73
2021/04/18 04:52:35;;;;;;;4.40;3.10;;;;;;;;;;5119400;28;21753;-73
2021/04/18 04:55:02;;;;;;;4.30;3.57;;;;;;;;;;5116064;28;20240;-74
2021/04/18 04:57:29;;;;;;;6.23;3.77;;;;;;;;;;5122246;27;20204;-73
2021/04/18 04:59:56;;;;;;;5.03;3.73;;;;;;;;;;5119493;28;20209;-73
2021/04/18 05:02:23;;;;;;;4.67;3.33;;;;;;;;;;5120015;27;20246;-73
2021/04/18 05:04:52;;;;;;;4.73;3.57;;;;;;;;;;5119622;27;20300;-74
2021/04/18 05:07:19;;;;;;;6.23;4.07;;;;;;;;;;5119823;27;20265;-73
2021/04/18 05:09:46;;;;;;;4.70;3.40;;;;;;;;;;5119938;27;20207;-73
2021/04/18 05:12:13;;;;;;;5.27;3.57;;;;;;;;;;5120923;27;20201;-74
2021/04/18 05:14:40;;;;;;;6.57;3.87;;;;;;;;;;5121717;27;20303;-74
2021/04/18 05:17:07;;;;;;;5.57;3.97;;;;;;;;;;5118217;27;20646;-74
2021/04/18 05:19:35;;;;;;;4.87;3.57;;;;;;;;;;5119069;28;20204;-73
2021/04/18 05:22:03;;;;;;;7.80;3.53;;;;;;;;;;5119215;28;20300;-72
2021/04/18 05:24:30;;;;;;;4.07;3.60;;;;;;;;;;5119401;28;20289;-72
2021/04/18 05:26:57;;;;;;;7.03;3.67;;;;;;;;;;5119441;28;20220;-73
2021/04/18 05:29:24;;;;;;;7.50;3.97;;;;;;;;;;5119483;28;20296;-74
2021/04/18 05:31:51;;;;;;;5.90;3.70;;;;;;;;;;5118988;28;20205;-73
2021/04/18 05:34:18;;;;;;;4.73;3.80;;;;;;;;;;5119109;28;20237;-73
2021/04/18 05:36:45;;;;;;;6.03;4.30;;;;;;;;;;5119148;28;20215;-74
2021/04/18 05:39:13;;;;;;;5.23;3.60;;;;;;;;;;5118939;28;20296;-74
2021/04/18 05:41:40;;;;;;;6.37;4.10;;;;;;;;;;5118784;28;20669;-74
2021/04/18 05:44:07;;;;;;;5.73;3.87;;;;;;;;;;5119090;28;20290;-73
2021/04/18 05:46:34;;;;;;;5.10;4.20;;;;;;;;;;5118476;28;20308;-73
2021/04/18 05:49:02;;;;;;;6.27;4.00;;;;;;;;;;5118689;28;20236;-73
2021/04/18 05:51:29;;;;;;;4.97;4.27;;;;;;;;;;5118884;28;20281;-73
2021/04/18 05:53:56;;;;;;;5.53;3.50;;;;;;;;;;5118541;28;20307;-73
2021/04/18 05:56:24;;;;;;;4.97;3.60;;;;;;;;;;5118640;28;20259;-73
2021/04/18 05:58:51;;;;;;;5.47;3.70;;;;;;;;;;5118908;28;20209;-73
2021/04/18 06:01:22;;;;;;;5.73;4.10;;;;;;;;;;5118787;28;20319;-73
2021/04/18 06:03:50;;;;;;;7.00;3.53;;;;;;;;;;5118664;28;20288;-73
2021/04/18 06:06:18;;;;;;;7.17;4.23;;;;;;;;;;5118832;28;20232;-73
2021/04/18 06:08:44;;;;;;;7.67;4.20;;;;;;;;;;5118609;28;20295;-73
2021/04/18 06:11:11;;;;;;;5.13;3.73;;;;;;;;;;5118257;28;20811;-73
2021/04/18 06:13:40;;;;;;;6.17;3.80;;;;;;;;;;5118612;28;20228;-73
2021/04/18 06:16:07;;;;;;;6.50;3.60;;;;;;;;;;5118495;28;20308;-73
2021/04/18 06:18:35;;;;;;;8.63;3.70;;;;;;;;;;5118378;28;20215;-73
2021/04/18 06:21:02;;;;;;;7.60;3.97;;;;;;;;;;5118248;28;20296;-73
2021/04/18 06:23:29;;;;;;;6.13;4.40;;;;;;;;;;5118531;28;20200;-73
2021/04/18 06:25:56;;;;;;;5.60;4.17;;;;;;;;;;5117938;28;20236;-73
2021/04/18 06:28:23;;;;;;;4.63;3.17;;;;;;;;;;5117761;28;20254;-73
2021/04/18 06:30:51;;;;;;;6.03;3.50;;;;;;;;;;5118110;28;20295;-74
2021/04/18 06:33:18;;;;;;;5.73;3.97;;;;;;;;;;5117777;28;20639;-73
2021/04/18 06:35:45;;;;;;;7.33;3.93;;;;;;;;;;5118261;28;20281;-73
2021/04/18 06:38:13;;;;;;;4.70;3.40;;;;;;;;;;5115714;28;20280;-73
2021/04/18 06:40:40;;;;;;;5.30;3.80;;;;;;;;;;5102225;28;20197;-74
2021/04/18 06:43:08;;;;;;;6.17;4.07;;;;;;;;;;5106400;28;20221;-74
2021/04/18 06:45:35;;;;;;;6.57;3.87;;;;;;;;;;5106412;28;20255;-73
2021/04/18 06:48:03;;;;;;;6.70;3.93;;;;;;;;;;5106212;28;20209;-74
2021/04/18 06:50:31;;;;;;;5.93;3.90;;;;;;;;;;5103649;28;20284;-74
2021/04/18 06:52:58;;;;;;;8.03;3.90;;;;;;;;;;5105779;28;20284;-74
2021/04/18 06:55:26;;;;;;;4.33;3.47;;;;;;;;;;5105447;28;20248;-74
2021/04/18 06:57:53;;;;;;;5.10;3.77;;;;;;;;;;5107684;28;20672;-74
2021/04/18 07:00:21;;;;;;;6.20;3.60;;;;;;;;;;5103326;28;20295;-74
2021/04/18 07:02:48;;;;;;;4.93;3.83;;;;;;;;;;5105535;28;20227;-73
2021/04/18 07:05:16;;;;;;;4.10;3.27;;;;;;;;;;5105897;28;20632;-73
2021/04/18 07:07:44;;;;;;;6.53;4.13;;;;;;;;;;5105352;28;20680;-74
2021/04/18 07:10:13;;;;;;;4.83;3.77;;;;;;;;;;5105571;28;20280;-74
2021/04/18 07:12:42;;;;;;;5.57;3.57;;;;;;;;;;5105175;28;20304;-75
2021/04/18 07:15:09;;;;;;;5.70;3.73;;;;;;;;;;5111730;28;20267;-75
2021/04/18 07:17:46;;;;;;;8.40;3.77;;;;;;;;;;5117635;28;20292;-75
2021/04/18 07:20:14;;;;;;;6.73;3.83;;;;;;;;;;5118121;28;20215;-74
2021/04/18 07:22:42;;;;;;;8.67;3.77;;;;;;;;;;5117687;28;20605;-71
2021/04/18 07:25:09;;;;;;;3.57;2.80;;;;;;;;;;5117704;28;20318;-71
2021/04/18 07:27:43;;;;;;;5.40;3.73;;;;;;;;;;5117900;28;20263;-72
2021/04/18 07:30:11;;;;;;;4.97;3.77;;;;;;;;;;5117078;28;20318;-72
2021/04/18 07:32:38;;;;;;;6.33;3.77;;;;;;;;;;5102843;28;20634;-73
2021/04/18 07:35:06;;;;;;;4.73;3.50;;;;;;;;;;5105906;28;20251;-73
2021/04/18 07:37:34;;;;;;;4.87;3.70;;;;;;;;;;5108907;28;20292;-72
2021/04/18 07:40:03;;;;;;;5.83;3.97;;;;;;;;;;5117774;28;20216;-73
2021/04/18 07:42:31;;;;;;;7.63;4.53;;;;;;;;;;5120987;28;20212;-71
2021/04/18 07:44:59;;;;;;;6.13;4.10;;;;;;;;;;5121145;28;20269;-72
2021/04/18 07:47:27;;;;;;;6.00;3.83;;;;;;;;;;5121108;28;20216;-72
2021/04/18 07:49:54;;;;;;;5.27;4.13;;;;;;;;;;5121351;28;20287;-70
2021/04/18 07:52:23;;;;;;;12.57;4.23;;;;;;;;;;5120180;28;20201;-73
2021/04/18 07:54:50;;;;;;;5.27;4.07;;;;;;;;;;5108789;28;20303;-73
2021/04/18 07:57:19;;;;;;;7.43;4.60;;;;;;;;;;5108632;28;20649;-73
2021/04/18 07:59:46;;;;;;;5.80;4.37;;;;;;;;;;5108006;28;20225;-73
2021/04/18 08:02:14;;;;;;;5.27;3.87;;;;;;;;;;5108260;28;20224;-72
2021/04/18 08:04:42;;;;;;;4.30;3.67;;;;;;;;;;5107134;28;20296;-73
2021/04/18 08:07:10;;;;;;;5.00;4.13;;;;;;;;;;5113034;28;20724;-72
2021/04/18 08:09:37;;;;;;;5.40;4.27;;;;;;;;;;5120748;28;20574;-74
2021/04/18 08:12:07;;;;;;;5.50;3.90;;;;;;;;;;5120645;28;20613;-74
2021/04/18 08:14:35;;;;;;;7.37;4.20;;;;;;;;;;5120291;27;20319;-72
2021/04/18 08:17:03;;;;;;;4.83;4.17;;;;;;;;;;5120359;28;20235;-74
2021/04/18 08:19:30;;;;;;;8.27;4.17;;;;;;;;;;5120570;28;20708;-74
2021/04/18 08:21:57;;;;;;;3.67;3.30;;;;;;;;;;5120713;28;20240;-74
2021/04/18 08:24:31;;;;;;;6.47;3.80;;;;;;;;;;5120610;28;20225;-72
2021/04/18 08:26:59;;;;;;;5.73;3.87;;;;;;;;;;5120576;28;20724;-73
2021/04/18 08:29:26;;;;;;;5.43;3.33;;;;;;;;;;5117072;28;20237;-74
2021/04/18 08:31:59;;;;;;;6.53;3.23;;;;;;;;;;5120362;28;20731;-72
2021/04/18 08:34:26;;;;;;;4.00;3.50;;;;;;;;;;5119996;28;20288;-73
2021/04/18 08:36:54;;;;;;;6.00;3.70;;;;;;;;;;5120256;28;20269;-74
2021/04/18 08:39:23;;;;;;;7.77;3.60;;;;;;;;;;5120067;28;20224;-72
2021/04/18 08:41:51;;;;;;;5.90;3.23;;;;;;;;;;5120005;28;20537;-72
2021/04/18 08:44:19;;;;;;;10.70;4.20;;;;;;;;;;5120305;28;20231;-74
2021/04/18 08:46:47;;;;;;;5.60;3.73;;;;;;;;;;5119413;28;20225;-74
2021/04/18 08:49:26;;;;;;;6.90;3.87;;;;;;;;;;5120016;28;20648;-74
2021/04/18 08:51:53;;;;;;;3.87;3.17;;;;;;;;;;5119885;28;20287;-75
2021/04/18 08:54:24;;;;;;;7.43;3.90;;;;;;;;;;5119611;28;20320;-72
2021/04/18 08:56:52;;;;;;;4.07;3.40;;;;;;;;;;5106976;28;20201;-75
2021/04/18 08:59:23;;;;;;;7.53;3.60;;;;;;;;;;5108347;28;20276;-74
2021/04/18 09:02:13;;;;;;;4.00;3.30;;;;;;;;;;5107633;28;20197;-75
2021/04/18 09:04:48;;;;;;;4.20;3.37;;;;;;;;;;5104409;28;20218;-75
2021/04/18 09:07:17;;;;;;;4.53;3.80;;;;;;;;;;5107197;28;20228;-74
2021/04/18 09:09:50;;;;;;;5.93;3.60;;;;;;;;;;5104989;28;20711;-75
2021/04/18 09:12:24;;;;;;;5.97;3.73;;;;;;;;;;5107769;28;20205;-75
2021/04/18 09:14:52;;;;;;;4.83;4.30;;;;;;;;;;5107118;28;20320;-73
2021/04/18 09:17:26;;;;;;;6.50;4.30;;;;;;;;;;5106720;28;20205;-73
2021/04/18 09:20:02;;;;;;;8.53;4.00;;;;;;;;;;5107003;28;20197;-74
2021/04/18 09:22:45;;;;;;;5.13;4.10;;;;;;;;;;5104348;28;20198;-75
2021/04/18 09:25:20;;;;;;;4.67;3.60;;;;;;;;;;5106470;28;20228;-75
2021/04/18 09:28:00;;;;;;;5.13;3.80;;;;;;;;;;5106771;28;20209;-75
2021/04/18 09:30:31;;;;;;;8.10;5.00;;;;;;;;;;5106644;28;20208;-74
2021/04/18 09:33:08;;;;;;;5.40;4.07;;;;;;;;;;5106256;28;20242;-75
2021/04/18 09:35:42;;;;;;;5.93;3.93;;;;;;;;;;5106946;28;20222;-73
2021/04/18 09:38:19;;;;;;;5.47;4.13;;;;;;;;;;5106662;28;20250;-73
2021/04/18 09:40:51;;;;;;;6.47;4.03;;;;;;;;;;5106465;28;20208;-73
2021/04/18 09:43:27;;;;;;;5.30;4.30;;;;;;;;;;5106759;28;20208;-73
2021/04/18 09:46:01;;;;;;;5.30;3.77;;;;;;;;;;5107911;28;20255;-75
2021/04/18 09:48:36;;;;;;;4.53;3.43;;;;;;;;;;5103862;28;20197;-73
2021/04/18 09:51:07;;;;;;;7.07;4.40;;;;;;;;;;5107276;28;20200;-74
2021/04/18 09:54:01;;;;;;;5.67;3.93;;;;;;;;;;5101185;28;20240;-74
2021/04/18 09:56:32;;;;;;;7.53;4.40;;;;;;;;;;5106555;28;20259;-74
2021/04/18 09:59:18;;;;;;;5.27;4.17;;;;;;;;;;5105979;28;20197;-74
2021/04/18 10:01:50;;;;;;;7.23;4.17;;;;;;;;;;5100298;28;20198;-74
2021/04/18 10:04:28;;;;;;;5.27;4.10;;;;;;;;;;5104326;28;20224;-74
2021/04/18 10:06:59;;;;;;;9.80;5.60;;;;;;;;;;5106338;28;20532;-74
2021/04/18 10:09:47;;;;;;;5.77;3.67;;;;;;;;;;5106043;28;20284;-74
2021/04/18 10:12:14;;;;;;;5.07;4.20;;;;;;;;;;5106740;28;20193;-74
2021/04/18 10:14:41;;;;;;;8.47;4.50;;;;;;;;;;5104412;28;20599;-74
2021/04/18 10:17:08;;;;;;;5.10;3.90;;;;;;;;;;5105983;28;20288;-75
2021/04/18 10:19:48;;;;;;;7.33;4.33;;;;;;;;;;5110263;28;20268;-74
2021/04/18 10:22:16;;;;;;;7.67;4.50;;;;;;;;;;5118493;28;20220;-75
2021/04/18 10:24:45;;;;;;;5.33;4.37;;;;;;;;;;5117664;28;20711;-74
2021/04/18 10:27:13;;;;;;;6.50;4.70;;;;;;;;;;5107127;28;20229;-74
2021/04/18 10:29:40;;;;;;;6.60;4.57;;;;;;;;;;5103248;28;20629;-75
2021/04/18 10:32:11;;;;;;;5.37;3.80;;;;;;;;;;5110464;28;20280;-75
2021/04/18 10:34:38;;;;;;;8.63;4.73;;;;;;;;;;5117975;28;20225;-74
2021/04/18 10:37:06;;;;;;;6.50;4.57;;;;;;;;;;5117638;28;20196;-77
2021/04/18 10:39:34;;;;;;;6.90;3.87;;;;;;;;;;5106700;28;20251;-75
2021/04/18 10:42:01;;;;;;;8.13;4.23;;;;;;;;;;5104142;28;20205;-73
2021/04/18 10:44:28;;;;;;;5.77;4.07;;;;;;;;;;5106206;28;20696;-74
2021/04/18 10:46:56;;;;;;;5.23;4.17;;;;;;;;;;5106508;28;20288;-74
2021/04/18 10:49:23;;;;;;;5.53;4.27;;;;;;;;;;5114511;28;20243;-75
2021/04/18 10:51:51;;;;;;;7.90;4.77;;;;;;;;;;5117657;28;20263;-74
2021/04/18 10:54:18;;;;;;;7.30;4.57;;;;;;;;;;5105342;28;20257;-73
2021/04/18 10:56:45;;;;;;;9.20;4.10;;;;;;;;;;5105517;28;20208;-73
2021/04/18 10:59:13;;;;;;;5.60;4.37;;;;;;;;;;5101020;28;20233;-74
2021/04/18 11:01:40;;;;;;;5.07;3.80;;;;;;;;;;5117725;28;20280;-73
2021/04/18 11:04:08;;;;;;;7.17;3.87;;;;;;;;;;5117766;28;20632;-73
2021/04/18 11:06:35;;;;;;;5.87;4.40;;;;;;;;;;5118068;28;20296;-73
2021/04/18 11:09:02;;;;;;;6.50;3.90;;;;;;;;;;5118114;28;20231;-73
2021/04/18 11:11:30;;;;;;;6.13;4.50;;;;;;;;;;5118011;28;20292;-72
2021/04/18 11:13:58;;;;;;;6.33;4.10;;;;;;;;;;5117670;28;20362;-73
2021/04/18 11:16:25;;;;;;;7.10;4.27;;;;;;;;;;5120766;28;20616;-72
2021/04/18 11:18:52;;;;;;;6.03;3.80;;;;;;;;;;5112547;28;20202;-72
2021/04/18 11:21:20;;;;;;;6.10;4.57;;;;;;;;;;5110357;28;20251;-72
2021/04/18 11:23:47;;;;;;;4.97;4.13;;;;;;;;;;5108789;28;20641;-72
2021/04/18 11:26:14;;;;;;;6.50;4.70;;;;;;;;;;5108876;28;20603;-72
2021/04/18 11:28:41;;;;;;;5.37;4.20;;;;;;;;;;5109327;28;20285;-72
2021/04/18 11:31:09;;;;;;;5.20;4.50;;;;;;;;;;5108251;28;20202;-73
2021/04/18 11:33:36;;;;;;;6.23;4.50;;;;;;;;;;5106290;28;20304;-72
2021/04/18 11:36:05;;;;;;;6.40;5.03;;;;;;;;;;5109391;28;20679;-73
2021/04/18 11:38:32;;;;;;;5.40;4.40;;;;;;;;;;5112505;28;20610;-71
2021/04/18 11:40:59;;;;;;;7.20;4.37;;;;;;;;;;5109157;28;20201;-72
2021/04/18 11:43:26;;;;;;;7.07;4.20;;;;;;;;;;5108916;28;20232;-72
2021/04/18 11:45:55;;;;;;;8.13;4.27;;;;;;;;;;5113580;28;20711;-73
2021/04/18 11:48:23;;;;;;;4.97;4.30;;;;;;;;;;5104968;28;20612;-72
2021/04/18 11:50:51;;;;;;;4.83;3.73;;;;;;;;;;5117835;28;20725;-71
2021/04/18 11:53:18;;;;;;;5.07;3.70;;;;;;;;;;5121012;28;20293;-71
2021/04/18 11:55:45;;;;;;;5.70;4.07;;;;;;;;;;5120858;27;20704;-72
2021/04/18 11:58:12;;;;;;;9.23;4.30;;;;;;;;;;5120719;28;20283;-72
2021/04/18 12:00:39;;;;;;;6.50;4.13;;;;;;;;;;5109483;28;20276;-72
2021/04/18 12:03:06;;;;;;;10.43;4.60;;;;;;;;;;5107235;27;20316;-72
2021/04/18 12:05:35;;;;;;;7.83;3.83;;;;;;;;;;5108267;28;20239;-72
2021/04/18 12:08:02;;;;;;;6.90;3.83;;;;;;;;;;5120945;28;20232;-73
2021/04/18 12:10:29;;;;;;;5.27;4.03;;;;;;;;;;5120951;28;20209;-72
2021/04/18 12:12:56;;;;;;;6.00;4.23;;;;;;;;;;5120913;28;20243;-72
2021/04/18 12:15:23;;;;;;;4.10;3.70;;;;;;;;;;5120560;28;20262;-72
2021/04/18 12:17:50;;;;;;;6.07;4.00;;;;;;;;;;5120327;28;20205;-72
2021/04/18 12:20:18;;;;;;;5.33;4.00;;;;;;;;;;5120836;28;20209;-71
2021/04/18 12:22:45;;;;;;;4.90;3.93;;;;;;;;;;5112736;28;20229;-71
2021/04/18 12:25:17;;;;;;;3.93;3.47;;;;;;;;;;5105803;27;20226;-72
2021/04/18 12:27:44;;;;;;;5.27;4.10;;;;;;;;;;5139936;27;20248;-72
2021/04/18 12:30:11;;;;;;;8.23;4.70;;;;;;;;;;5141123;27;20231;-72
2021/04/18 12:32:38;;;;;;;5.37;3.87;;;;;;;;;;5140850;27;20244;-72
2021/04/18 12:35:06;;;;;;;5.07;4.10;;;;;;;;;;5131987;27;20231;-72
2021/04/18 12:37:33;;;;;;;5.50;4.13;;;;;;;;;;5120577;28;20291;-72
2021/04/18 12:40:02;;;;;;;6.00;3.90;;;;;;;;;;5120426;28;20212;-72
2021/04/18 12:42:28;;;;;;;4.97;4.03;;;;;;;;;;5118823;28;20235;-72
2021/04/18 12:44:55;;;;;;;6.30;4.00;;;;;;;;;;5118453;28;20220;-72
2021/04/18 12:47:22;;;;;;;5.93;4.20;;;;;;;;;;5118419;28;20719;-72
2021/04/18 12:49:51;;;;;;;4.87;4.00;;;;;;;;;;5118648;28;20687;-72
2021/04/18 12:52:18;;;;;;;5.13;4.07;;;;;;;;;;5119619;28;20243;-71
2021/04/18 12:54:47;;;;;;;7.87;4.53;;;;;;;;;;5119333;28;20220;-73
2021/04/18 12:57:17;;;;;;;5.83;4.37;;;;;;;;;;5119666;28;20236;-72
2021/04/18 12:59:44;;;;;;;8.60;5.73;;;;;;;;;;5119903;28;20284;-72
2021/04/18 13:02:11;;;;;;;6.07;4.27;;;;;;;;;;5118666;28;20311;-73
2021/04/18 13:04:38;;;;;;;5.83;4.47;;;;;;;;;;5120008;27;20228;-73
2021/04/18 13:07:06;;;;;;;8.43;4.60;;;;;;;;;;5118746;28;20197;-72
2021/04/18 13:09:33;;;;;;;4.10;3.80;;;;;;;;;;5120892;27;20620;-71
2021/04/18 13:12:00;;;;;;;8.00;4.53;;;;;;;;;;5115696;28;20201;-73
2021/04/18 13:14:28;;;;;;;7.60;4.53;;;;;;;;;;5127404;27;20256;-73
2021/04/18 13:16:55;;;;;;;5.97;3.83;;;;;;;;;;5140021;27;20294;-73
2021/04/18 13:19:22;;;;;;;5.87;3.73;;;;;;;;;;5139856;27;20208;-73
2021/04/18 13:21:49;;;;;;;5.50;3.87;;;;;;;;;;5140272;27;20244;-72
2021/04/18 13:24:16;;;;;;;6.67;4.37;;;;;;;;;;5139376;27;20222;-73
2021/04/18 13:26:43;;;;;;;7.10;4.60;;;;;;;;;;5139618;27;20242;-72
2021/04/18 13:29:10;;;;;;;6.13;4.30;;;;;;;;;;5139810;27;20245;-72
2021/04/18 13:31:38;;;;;;;7.10;3.93;;;;;;;;;;5139304;27;20235;-73
2021/04/18 13:34:06;;;;;;;5.10;3.77;;;;;;;;;;5137878;27;20269;-72
2021/04/18 13:36:33;;;;;;;5.93;4.03;;;;;;;;;;5117500;28;20715;-73
2021/04/18 13:39:00;;;;;;;6.13;4.00;;;;;;;;;;5117228;27;20212;-73
2021/04/18 13:41:27;;;;;;;10.30;4.47;;;;;;;;;;5118536;28;20232;-73
2021/04/18 13:43:55;;;;;;;5.53;3.80;;;;;;;;;;5118540;28;20240;-73
2021/04/18 13:46:22;;;;;;;5.27;4.43;;;;;;;;;;5117869;28;20740;-73
2021/04/18 13:48:50;;;;;;;6.43;3.60;;;;;;;;;;5118866;28;20296;-73
2021/04/18 13:51:17;;;;;;;5.67;4.07;;;;;;;;;;5118936;28;20573;-73
2021/04/18 13:53:44;;;;;;;4.60;3.40;;;;;;;;;;5118611;28;20224;-73
2021/04/18 13:56:11;;;;;;;5.90;3.70;;;;;;;;;;5118499;28;20794;-73
2021/04/18 13:58:38;;;;;;;6.30;3.90;;;;;;;;;;5118914;28;20288;-73
2021/04/18 14:01:05;;;;;;;5.40;3.90;;;;;;;;;;5118437;28;20633;-73
2021/04/18 14:03:43;;;;;;;6.00;3.83;;;;;;;;;;5118750;28;20212;-73
2021/04/18 14:06:13;;;;;;;4.67;3.50;;;;;;;;;;5118813;28;20228;-72
2021/04/18 14:08:40;;;;;;;3.77;3.47;;;;;;;;;;5119236;28;20302;-73
2021/04/18 14:11:07;;;;;;;4.80;3.80;;;;;;;;;;5118611;28;20288;-73
2021/04/18 14:13:34;;;;;;;6.57;3.40;;;;;;;;;;5118369;28;20719;-72
2021/04/18 14:16:03;;;;;;;5.33;3.77;;;;;;;;;;5118497;28;20240;-73
2021/04/18 14:18:31;;;;;;;3.50;3.07;;;;;;;;;;5118489;28;20287;-73
2021/04/18 14:20:58;;;;;;;7.03;4.83;;;;;;;;;;5118617;28;20276;-72
2021/04/18 14:23:26;;;;;;;3.50;3.20;;;;;;;;;;5118318;28;20323;-73
2021/04/18 14:25:53;;;;;;;3.30;3.00;;;;;;;;;;5118124;28;20303;-73
2021/04/18 14:28:20;;;;;;;6.07;3.27;;;;;;;;;;5118307;27;20205;-73
2021/04/18 14:30:47;;;;;;;4.00;3.07;;;;;;;;;;5118483;28;20227;-73
2021/04/18 14:33:14;;;;;;;3.77;2.87;;;;;;;;;;5117915;28;20288;-73
2021/04/18 14:35:42;;;;;;;4.07;3.17;;;;;;;;;;5118300;28;20224;-73
2021/04/18 14:38:09;;;;;;;4.30;2.93;;;;;;;;;;5118358;28;20204;-72
2021/04/18 14:40:36;;;;;;;4.53;3.17;;;;;;;;;;5118163;28;20734;-73
2021/04/18 14:43:03;;;;;;;3.97;3.10;;;;;;;;;;5118334;28;20241;-73
2021/04/18 14:45:30;;;;;;;8.03;3.50;;;;;;;;;;5118666;28;20228;-73
2021/04/18 14:47:57;;;;;;;4.27;3.13;;;;;;;;;;5118322;28;20240;-73